Time;durP1;ratioP1;P1;durP2;ratioP2;P2;SDS_P1;SDS_P2;PMS_P1;PMS_P2;Temp;Humidity;BMP_temperature;BMP_pressure;BME280_temperature;BME280_humidity;BME280_pressure;Samples;Min_cycle;Max_cycle;Signal;HPM_P1;HPM_P2
2024/04/03 00:00:25;;;;;;;55.28;6.65;;;;;;;9.86;100.00;97394.94;4986121;28;20076;-61
2024/04/03 00:02:50;;;;;;;80.00;8.20;;;;;;;9.96;100.00;97404.38;4984946;28;20010;-61
2024/04/03 00:05:16;;;;;;;44.70;6.22;;;;;;;9.85;100.00;97403.59;4984903;28;20026;-62
2024/04/03 00:07:41;;;;;;;47.17;6.32;;;;;;;9.80;100.00;97395.84;4986828;28;20104;-63
2024/04/03 00:10:07;;;;;;;62.17;7.38;;;;;;;9.76;100.00;97399.34;4986803;28;20141;-61
2024/04/03 00:12:32;;;;;;;50.05;6.15;;;;;;;9.79;100.00;97398.50;4984266;28;20289;-61
2024/04/03 00:14:57;;;;;;;78.15;8.70;;;;;;;9.77;100.00;97398.50;4986139;28;20525;-61
2024/04/03 00:17:23;;;;;;;69.63;7.40;;;;;;;9.94;100.00;97393.13;4985667;28;20645;-61
2024/04/03 00:19:48;;;;;;;88.03;9.02;;;;;;;9.99;100.00;97390.50;4983875;28;20038;-60
2024/04/03 00:22:13;;;;;;;47.78;6.45;;;;;;;10.15;100.00;97394.66;4984432;28;20034;-61
2024/04/03 00:24:39;;;;;;;46.92;6.63;;;;;;;10.32;100.00;97392.72;4986784;28;20308;-62
2024/04/03 00:27:04;;;;;;;55.28;7.22;;;;;;;10.24;100.00;97398.03;4983627;28;20040;-61
2024/04/03 00:29:30;;;;;;;49.00;6.25;;;;;;;10.22;100.00;97395.44;4984036;28;20029;-60
2024/04/03 00:31:55;;;;;;;88.50;8.55;;;;;;;10.02;100.00;97380.91;4983645;28;20145;-61
2024/04/03 00:34:20;;;;;;;42.83;5.70;;;;;;;9.94;100.00;97382.72;4986476;28;20091;-64
2024/04/03 00:36:46;;;;;;;69.88;8.55;;;;;;;9.90;100.00;97381.91;4983700;28;20311;-59
2024/04/03 00:39:11;;;;;;;54.67;7.03;;;;;;;9.93;100.00;97381.03;4986456;28;20029;-61
2024/04/03 00:41:36;;;;;;;63.50;7.15;;;;;;;9.89;100.00;97376.72;4984179;28;20041;-63
2024/04/03 00:44:01;;;;;;;60.38;7.13;;;;;;;9.84;100.00;97379.34;4983329;28;20030;-62
2024/04/03 00:46:27;;;;;;;46.85;6.80;;;;;;;9.97;100.00;97377.50;4984703;28;20250;-61
2024/04/03 00:48:52;;;;;;;87.18;9.75;;;;;;;9.92;100.00;97381.91;4983108;28;20038;-60
2024/04/03 00:51:18;;;;;;;46.58;6.43;;;;;;;9.97;100.00;97381.84;4985687;28;20047;-61
2024/04/03 00:53:43;;;;;;;52.80;6.47;;;;;;;10.02;100.00;97378.31;4985401;28;20561;-60
2024/04/03 00:56:09;;;;;;;64.45;7.35;;;;;;;10.09;100.00;97375.66;4982867;28;20111;-61
2024/04/03 00:58:34;;;;;;;52.60;6.80;;;;;;;10.05;100.00;97384.38;4985587;28;20544;-59
2024/04/03 01:01:00;;;;;;;73.22;8.10;;;;;;;10.16;100.00;97382.50;4982917;28;20045;-62
2024/04/03 01:03:25;;;;;;;55.83;7.07;;;;;;;10.12;100.00;97379.06;4984941;28;20034;-62
2024/04/03 01:06:04;;;;;;;98.55;9.80;;;;;;;9.84;100.00;97379.34;4984182;28;20038;-59
2024/04/03 01:08:30;;;;;;;42.00;5.80;;;;;;;9.90;100.00;97368.06;4984872;28;20037;-60
2024/04/03 01:10:59;;;;;;;95.75;9.90;;;;;;;10.18;100.00;97374.69;4981996;28;20033;-61
2024/04/03 01:13:26;;;;;;;36.08;5.78;;;;;;;9.88;100.00;97377.63;4984232;28;20296;-61
2024/04/03 01:16:03;;;;;;;80.53;8.57;;;;;;;10.12;100.00;97370.41;4983188;28;20041;-61
2024/04/03 01:18:29;;;;;;;55.42;7.13;;;;;;;9.87;100.00;97366.34;4988520;28;20125;-60
2024/04/03 01:20:54;;;;;;;80.70;9.02;;;;;;;9.98;100.00;97358.44;4987325;28;20402;-62
2024/04/03 01:23:20;;;;;;;48.40;6.32;;;;;;;10.04;100.00;97362.72;4989446;28;20033;-60
2024/04/03 01:25:45;;;;;;;53.70;6.90;;;;;;;10.01;100.00;97353.22;4987523;28;20125;-60
2024/04/03 01:28:11;;;;;;;47.55;6.47;;;;;;;9.92;100.00;97355.06;4989198;28;20076;-61
2024/04/03 01:30:36;;;;;;;58.72;7.50;;;;;;;9.93;100.00;97349.84;4986858;28;20046;-62
2024/04/03 01:33:04;;;;;;;91.88;9.27;;;;;;;10.08;100.00;97355.72;4987593;28;20113;-60
2024/04/03 01:35:30;;;;;;;49.83;6.70;;;;;;;10.01;100.00;97350.63;4987630;28;20038;-62
2024/04/03 01:37:55;;;;;;;101.03;9.85;;;;;;;9.72;100.00;97346.59;4986881;28;20026;-62
2024/04/03 01:40:21;;;;;;;58.53;7.32;;;;;;;9.80;100.00;97343.06;4988053;28;20037;-61
2024/04/03 01:42:48;;;;;;;54.85;6.50;;;;;;;9.57;100.00;97346.78;4989599;28;20026;-61
2024/04/03 01:45:13;;;;;;;40.33;5.70;;;;;;;9.67;100.00;97339.72;4987063;28;20058;-60
2024/04/03 01:47:42;;;;;;;59.83;7.22;;;;;;;9.69;100.00;97344.03;4987339;28;20106;-60
2024/04/03 01:50:07;;;;;;;53.53;6.68;;;;;;;9.81;100.00;97342.19;4987501;28;20034;-62
2024/04/03 01:52:33;;;;;;;48.30;6.45;;;;;;;9.92;100.00;97335.16;4967677;28;20096;-61
2024/04/03 01:54:58;;;;;;;105.82;9.93;;;;;;;9.94;100.00;97335.13;4965345;28;20030;-63
2024/04/03 01:57:23;;;;;;;53.65;6.50;;;;;;;10.01;100.00;97335.03;4969517;28;20033;-64
2024/04/03 01:59:48;;;;;;;56.75;6.72;;;;;;;10.16;100.00;97336.59;4967486;28;20026;-61
2024/04/03 02:02:14;;;;;;;59.15;7.10;;;;;;;10.11;100.00;97335.78;4968784;28;20065;-63
2024/04/03 02:04:39;;;;;;;48.80;6.65;;;;;;;10.17;100.00;97329.63;4970395;28;20029;-65
2024/04/03 02:07:04;;;;;;;76.20;8.35;;;;;;;10.19;100.00;97324.41;4968154;28;20636;-62
2024/04/03 02:09:30;;;;;;;42.00;5.95;;;;;;;10.18;100.00;97323.59;4968430;28;20027;-61
2024/04/03 02:11:55;;;;;;;96.13;10.10;;;;;;;10.08;100.00;97327.16;4965094;28;20446;-65
2024/04/03 02:14:20;;;;;;;43.97;5.85;;;;;;;9.94;100.00;97322.97;4969617;28;20030;-60
2024/04/03 02:16:46;;;;;;;53.33;6.30;;;;;;;9.90;100.00;97308.31;4967807;28;20101;-61
2024/04/03 02:19:12;;;;;;;71.13;7.88;;;;;;;9.93;100.00;97308.28;4965912;28;20302;-60
2024/04/03 02:21:38;;;;;;;42.72;6.00;;;;;;;9.77;100.00;97305.84;4969001;28;20480;-62
2024/04/03 02:24:04;;;;;;;84.63;9.38;;;;;;;10.11;100.00;97303.75;4967916;28;20026;-62
2024/04/03 02:26:29;;;;;;;53.47;7.07;;;;;;;10.10;100.00;97302.03;4967801;28;20026;-60
2024/04/03 02:28:55;;;;;;;73.32;8.35;;;;;;;9.86;100.00;97298.84;4965012;28;20077;-60
2024/04/03 02:31:20;;;;;;;44.25;6.40;;;;;;;10.11;100.00;97302.00;4967591;28;20053;-64
2024/04/03 02:33:46;;;;;;;51.35;6.57;;;;;;;9.70;100.00;97293.84;4968399;28;20034;-62
2024/04/03 02:36:12;;;;;;;50.05;6.32;;;;;;;10.02;100.00;97296.91;4966285;28;20030;-61
2024/04/03 02:38:38;;;;;;;43.72;6.32;;;;;;;10.05;100.00;97306.44;4968208;28;20437;-63
2024/04/03 02:41:03;;;;;;;97.45;10.35;;;;;;;10.12;100.00;97308.06;4964297;28;20038;-62
2024/04/03 02:43:29;;;;;;;46.38;6.85;;;;;;;9.94;100.00;97296.16;4969257;28;20031;-59
2024/04/03 02:45:55;;;;;;;93.18;9.48;;;;;;;10.10;100.00;97302.03;4966125;28;20023;-62
2024/04/03 02:48:20;;;;;;;43.45;5.97;;;;;;;9.96;100.00;97299.59;4968046;28;20491;-63
2024/04/03 02:50:49;;;;;;;74.53;7.97;;;;;;;9.83;100.00;97301.50;4968872;28;20046;-59
2024/04/03 02:53:18;;;;;;;50.00;6.47;;;;;;;10.32;100.00;97296.56;4969475;28;20451;-61
2024/04/03 02:55:43;;;;;;;56.05;7.38;;;;;;;10.02;100.00;97292.59;4965796;28;20126;-62
2024/04/03 02:58:09;;;;;;;98.07;9.75;;;;;;;10.04;100.00;97292.56;4969729;28;20030;-60
2024/04/03 03:00:34;;;;;;;37.75;5.90;;;;;;;9.93;100.00;97292.69;4967242;28;20043;-63
2024/04/03 03:02:59;;;;;;;93.70;9.85;;;;;;;10.22;100.00;97285.41;4965670;28;20183;-61
2024/04/03 03:05:25;;;;;;;62.38;7.30;;;;;;;10.18;100.00;97284.59;4974741;28;20043;-61
2024/04/03 03:07:50;;;;;;;55.13;6.85;;;;;;;10.30;100.00;97286.16;4968248;28;20499;-62
2024/04/03 03:10:15;;;;;;;48.72;6.47;;;;;;;9.96;100.00;97286.59;4966679;28;20031;-61
2024/04/03 03:12:41;;;;;;;58.75;7.20;;;;;;;10.20;100.00;97277.63;4966444;28;20491;-62
2024/04/03 03:15:07;;;;;;;82.97;8.43;;;;;;;9.96;100.00;97274.50;4966912;28;20379;-61
2024/04/03 03:17:32;;;;;;;53.50;6.72;;;;;;;9.95;100.00;97271.91;4966492;28;20026;-62
2024/04/03 03:19:57;;;;;;;96.72;9.55;;;;;;;10.20;100.00;97275.03;4968949;28;20027;-61
2024/04/03 03:22:23;;;;;;;47.05;6.38;;;;;;;10.11;100.00;97276.03;4968382;28;20133;-61
2024/04/03 03:24:48;;;;;;;59.92;7.25;;;;;;;9.86;100.00;97267.66;4967195;28;20265;-61
2024/04/03 03:27:13;;;;;;;53.97;6.85;;;;;;;9.85;100.00;97273.75;4964830;28;20049;-61
2024/04/03 03:29:39;;;;;;;62.42;7.07;;;;;;;9.89;100.00;97262.44;4967667;28;20034;-63
2024/04/03 03:32:04;;;;;;;67.30;7.50;;;;;;;9.91;100.00;97263.28;4967057;28;20503;-62
2024/04/03 03:34:29;;;;;;;61.10;7.18;;;;;;;9.69;100.00;97262.69;4968712;28;20041;-63
2024/04/03 03:36:55;;;;;;;68.63;7.78;;;;;;;9.69;100.00;97250.53;4967643;28;20061;-60
2024/04/03 03:39:20;;;;;;;60.90;6.72;;;;;;;9.65;100.00;97248.84;4969771;28;20038;-60
2024/04/03 03:41:46;;;;;;;51.63;6.50;;;;;;;9.85;100.00;97246.06;4969489;28;20042;-60
2024/04/03 03:44:11;;;;;;;57.58;6.97;;;;;;;9.46;100.00;97236.09;4969508;28;20441;-63
2024/04/03 03:46:36;;;;;;;49.85;6.78;;;;;;;9.50;100.00;97236.91;4969103;28;20098;-62
2024/04/03 03:54:29;;;;;;;54.90;6.75;;;;;;;10.07;100.00;97234.50;4970875;28;20081;-61
2024/04/03 03:56:55;;;;;;;61.45;7.00;;;;;;;9.88;100.00;97240.78;4968223;28;20031;-60
2024/04/03 03:59:20;;;;;;;56.03;7.28;;;;;;;9.95;100.00;97238.13;4969925;28;20023;-63
2024/04/03 04:01:46;;;;;;;48.78;6.97;;;;;;;9.82;100.00;97242.59;4967634;28;20573;-61
2024/04/03 04:04:11;;;;;;;61.10;7.15;;;;;;;9.87;100.00;97238.22;4969525;28;20197;-63
2024/04/03 04:06:37;;;;;;;52.42;6.95;;;;;;;9.86;100.00;97231.31;4969290;28;20715;-62
2024/04/03 04:09:02;;;;;;;61.17;7.45;;;;;;;9.99;100.00;97232.88;4968369;28;20411;-60
2024/04/03 04:11:27;;;;;;;66.30;7.60;;;;;;;9.89;100.00;97226.94;4967669;28;20046;-63
2024/04/03 04:13:53;;;;;;;51.72;7.13;;;;;;;9.98;100.00;97233.75;4967210;28;20026;-61
2024/04/03 04:16:18;;;;;;;54.92;7.05;;;;;;;10.16;100.00;97218.78;4967431;28;20046;-60
2024/04/03 04:18:45;;;;;;;49.53;6.50;;;;;;;9.91;100.00;97219.13;4966175;28;20026;-61
2024/04/03 04:21:10;;;;;;;58.28;7.07;;;;;;;10.21;100.00;97218.72;4965877;28;20063;-61
2024/04/03 04:23:35;;;;;;;50.45;6.53;;;;;;;10.45;100.00;97216.66;4967861;28;20057;-61
2024/04/03 04:26:04;;;;;;;66.50;7.85;;;;;;;10.34;100.00;97222.88;4969371;28;20051;-62
2024/04/03 04:28:33;;;;;;;36.15;5.72;;;;;;;10.18;100.00;97214.44;4968850;28;20358;-62
2024/04/03 04:31:02;;;;;;;49.00;6.18;;;;;;;9.90;100.00;97210.47;4968594;28;20538;-62
2024/04/03 04:33:28;;;;;;;52.83;7.28;;;;;;;9.97;100.00;97219.06;4968032;28;20058;-62
2024/04/03 04:35:54;;;;;;;51.83;7.05;;;;;;;10.01;100.00;97210.34;4970401;28;20042;-62
2024/04/03 04:38:21;;;;;;;58.95;7.20;;;;;;;10.32;100.00;97202.97;4967256;28;20089;-60
2024/04/03 04:41:00;;;;;;;79.68;7.93;;;;;;;10.43;100.00;97206.25;4967101;28;20038;-61
2024/04/03 04:43:29;;;;;;;56.95;7.05;;;;;;;10.34;100.00;97201.22;4966333;28;20098;-62
2024/04/03 04:45:59;;;;;;;62.97;7.43;;;;;;;10.04;100.00;97199.03;4967271;28;20026;-62
2024/04/03 04:48:26;;;;;;;49.83;6.47;;;;;;;10.35;100.00;97196.00;4968865;28;20275;-63
2024/04/03 04:50:53;;;;;;;75.03;8.63;;;;;;;10.45;100.00;97198.47;4966425;28;20067;-60
2024/04/03 04:53:18;;;;;;;51.38;7.28;;;;;;;9.72;100.00;97198.59;4968899;28;20023;-60
2024/04/03 04:55:57;;;;;;;51.45;6.90;;;;;;;9.94;100.00;97192.28;4966229;28;20069;-61
2024/04/03 04:58:23;;;;;;;55.25;7.47;;;;;;;10.13;100.00;97198.03;4967140;28;20514;-62
2024/04/03 05:00:50;;;;;;;85.05;9.10;;;;;;;9.60;100.00;97198.72;4966757;28;20046;-58
2024/04/03 05:03:16;;;;;;;47.10;7.43;;;;;;;9.96;100.00;97193.09;4967391;28;20431;-63
2024/04/03 05:05:41;;;;;;;49.88;7.47;;;;;;;9.60;100.00;97201.34;4967056;28;20548;-61
2024/04/03 05:08:07;;;;;;;67.55;8.70;;;;;;;9.82;100.00;97195.88;4966887;28;20045;-61
2024/04/03 05:10:34;;;;;;;49.53;7.05;;;;;;;9.47;100.00;97195.44;4967721;28;20073;-62
2024/04/03 05:12:59;;;;;;;61.80;7.63;;;;;;;9.35;100.00;97197.28;4967845;28;20030;-61
2024/04/03 05:15:28;;;;;;;65.50;7.78;;;;;;;9.46;100.00;97204.94;4966520;28;20503;-61
2024/04/03 05:17:54;;;;;;;60.22;7.95;;;;;;;9.48;100.00;97197.16;4968382;28;20050;-60
2024/04/03 05:20:19;;;;;;;45.33;6.60;;;;;;;9.62;100.00;97195.25;4967030;28;20049;-63
2024/04/03 05:22:44;;;;;;;66.72;8.38;;;;;;;9.60;100.00;97199.59;4965103;28;20030;-61
2024/04/03 05:25:10;;;;;;;41.72;6.05;;;;;;;10.03;100.00;97205.97;4966739;28;20539;-60
2024/04/03 05:27:35;;;;;;;58.38;7.15;;;;;;;10.49;100.00;97202.75;4966119;28;20529;-62
2024/04/03 05:30:00;;;;;;;77.57;8.55;;;;;;;11.20;100.00;97191.13;4965943;28;20026;-62
2024/04/03 05:32:26;;;;;;;48.72;8.40;;;;;;;12.86;100.00;97191.03;4966366;28;20038;-61
2024/04/03 05:34:51;;;;;;;54.35;7.47;;;;;;;15.38;100.00;97184.41;4964720;28;20031;-62
2024/04/03 05:37:16;;;;;;;50.85;8.25;;;;;;;17.23;93.28;97183.41;4965051;28;20379;-60
2024/04/03 05:39:42;;;;;;;55.00;8.00;;;;;;;19.11;68.36;97179.94;4968065;28;20023;-63
2024/04/03 05:42:07;;;;;;;60.78;8.27;;;;;;;20.28;52.98;97175.59;4966700;28;20562;-61
2024/04/03 05:44:32;;;;;;;49.65;7.32;;;;;;;19.09;52.39;97173.91;4968119;28;20099;-61
2024/04/03 05:46:58;;;;;;;60.50;7.97;;;;;;;15.86;63.80;97180.00;4964799;28;20042;-60
2024/04/03 05:49:23;;;;;;;35.97;5.95;;;;;;;14.75;72.64;97182.16;4967365;28;20115;-62
2024/04/03 05:51:48;;;;;;;50.50;7.18;;;;;;;13.86;83.13;97190.13;4966935;28;20035;-58
2024/04/03 05:54:14;;;;;;;54.60;7.78;;;;;;;13.30;95.34;97187.28;4965008;28;20494;-58
2024/04/03 05:56:39;;;;;;;47.13;6.40;;;;;;;13.38;100.00;97190.56;4967828;28;20549;-59
2024/04/03 05:59:04;;;;;;;50.30;6.80;;;;;;;13.27;100.00;97195.22;4967222;28;20034;-60
2024/04/03 06:01:30;;;;;;;38.33;6.22;;;;;;;13.30;100.00;97195.13;4964707;28;20606;-61
2024/04/03 06:03:55;;;;;;;61.90;8.25;;;;;;;13.00;100.00;97198.50;4967192;28;20458;-60
2024/04/03 06:06:21;;;;;;;43.85;6.88;;;;;;;13.19;100.00;97198.03;4967827;28;20450;-60
2024/04/03 06:08:46;;;;;;;41.63;6.35;;;;;;;12.66;100.00;97198.50;4969915;28;20106;-61
2024/04/03 06:11:11;;;;;;;56.10;7.05;;;;;;;12.42;100.00;97201.66;4968657;28;20062;-60
2024/04/03 06:13:37;;;;;;;40.47;5.85;;;;;;;12.27;100.00;97195.06;4969421;28;20309;-60
2024/04/03 06:16:02;;;;;;;64.30;7.53;;;;;;;12.29;100.00;97195.03;4969967;28;20616;-61
2024/04/03 06:18:27;;;;;;;59.92;7.40;;;;;;;12.40;100.00;97200.00;4970310;28;20042;-61
2024/04/03 06:20:53;;;;;;;47.10;6.30;;;;;;;12.16;100.00;97197.03;4968934;28;20475;-60
2024/04/03 06:23:18;;;;;;;49.05;6.97;;;;;;;11.91;100.00;97200.19;4968623;28;20027;-59
2024/04/03 06:25:43;;;;;;;51.60;6.88;;;;;;;12.22;100.00;97200.34;4969402;28;20026;-59
2024/04/03 06:28:09;;;;;;;48.63;7.00;;;;;;;12.58;100.00;97201.31;4970220;28;20045;-59
2024/04/03 06:30:34;;;;;;;47.88;6.90;;;;;;;12.30;100.00;97200.22;4968825;28;20117;-60
2024/04/03 06:33:00;;;;;;;63.67;7.75;;;;;;;12.30;100.00;97199.34;4969848;28;20113;-61
2024/04/03 06:35:25;;;;;;;48.38;7.00;;;;;;;12.33;100.00;97194.91;4970582;28;20038;-60
2024/04/03 06:37:51;;;;;;;50.45;7.00;;;;;;;12.41;100.00;97194.75;4970019;28;20173;-60
2024/04/03 06:40:18;;;;;;;57.78;7.43;;;;;;;12.76;100.00;97199.97;4970359;28;20391;-60
2024/04/03 06:42:44;;;;;;;49.38;6.82;;;;;;;12.76;100.00;97199.97;4969439;28;20207;-60
2024/04/03 06:45:11;;;;;;;45.40;6.65;;;;;;;12.71;100.00;97201.84;4968201;28;20402;-59
2024/04/03 06:47:36;;;;;;;43.67;6.57;;;;;;;12.60;100.00;97195.16;4970112;28;20066;-62
2024/04/03 06:50:02;;;;;;;51.72;7.05;;;;;;;12.48;100.00;97196.28;4969580;28;20069;-60
2024/04/03 06:52:27;;;;;;;43.65;5.95;;;;;;;12.53;100.00;97200.53;4969835;28;20030;-61
2024/04/03 06:54:54;;;;;;;51.15;6.97;;;;;;;12.40;100.00;97198.22;4971782;28;20162;-59
2024/04/03 06:57:21;;;;;;;43.75;6.32;;;;;;;12.26;100.00;97193.34;4970104;28;20078;-61
2024/04/03 06:59:46;;;;;;;50.28;6.72;;;;;;;12.58;100.00;97201.31;4969133;28;20111;-60
2024/04/03 07:02:11;;;;;;;54.10;7.03;;;;;;;12.65;100.00;97207.22;4968774;28;20050;-59
2024/04/03 07:04:37;;;;;;;46.97;6.82;;;;;;;12.45;100.00;97205.94;4969694;28;20041;-60
2024/04/03 07:07:04;;;;;;;69.68;8.18;;;;;;;12.57;100.00;97210.00;4966949;28;20047;-60
2024/04/03 07:09:29;;;;;;;36.78;5.85;;;;;;;12.80;100.00;97209.44;4971171;28;20399;-60
2024/04/03 07:11:55;;;;;;;37.80;6.55;;;;;;;13.25;100.00;97205.69;4969505;28;20574;-59
2024/04/03 07:14:20;;;;;;;57.38;7.93;;;;;;;13.10;100.00;97206.13;4969087;28;20125;-60
2024/04/03 07:16:46;;;;;;;42.20;6.90;;;;;;;13.04;100.00;97207.13;4968808;28;20376;-61
2024/04/03 07:19:11;;;;;;;57.38;7.78;;;;;;;13.13;100.00;97203.41;4967357;28;20104;-62
2024/04/03 07:21:38;;;;;;;61.53;8.00;;;;;;;13.53;100.00;97199.75;4969475;28;20412;-62
2024/04/03 07:24:03;;;;;;;57.28;8.00;;;;;;;13.89;100.00;97205.72;4971060;28;20457;-61
2024/04/03 07:26:29;;;;;;;45.28;7.03;;;;;;;13.35;96.80;97203.69;4967926;28;20598;-59
2024/04/03 07:28:54;;;;;;;53.30;6.97;;;;;;;13.28;95.48;97203.00;4967778;28;20039;-61
2024/04/03 07:31:19;;;;;;;49.72;7.32;;;;;;;13.84;99.24;97197.16;4969352;28;20045;-59
2024/04/03 07:33:45;;;;;;;53.55;6.90;;;;;;;13.68;94.71;97200.22;4969809;28;20018;-58
2024/04/03 07:36:10;;;;;;;56.22;7.10;;;;;;;13.80;94.29;97199.84;4965838;28;20661;-59
2024/04/03 07:38:35;;;;;;;47.05;6.97;;;;;;;13.87;96.98;97205.75;4968093;28;20553;-62
2024/04/03 07:41:01;;;;;;;46.30;6.03;;;;;;;13.63;94.77;97207.34;4966832;28;20042;-62
2024/04/03 07:43:26;;;;;;;41.22;6.68;;;;;;;13.87;98.97;97203.16;4968088;28;20165;-59
2024/04/03 07:45:58;;;;;;;53.95;7.32;;;;;;;14.49;94.71;97215.25;4965406;28;20027;-62
2024/04/03 07:48:23;;;;;;;;;;;;;;;14.31;91.98;97207.94;4968471;28;20023;-61
2024/04/03 07:50:59;;;;;;;54.85;7.15;;;;;;;14.55;90.33;97213.28;4968324;28;19964;-61
2024/04/03 07:53:24;;;;;;;54.67;7.57;;;;;;;14.83;90.89;97212.44;4966807;28;20038;-61
2024/04/03 07:55:50;;;;;;;51.65;7.00;;;;;;;14.58;82.28;97207.97;4966636;28;20129;-61
2024/04/03 07:58:15;;;;;;;49.40;7.15;;;;;;;14.81;82.05;97218.63;4968162;28;20505;-60
2024/04/03 08:00:40;;;;;;;65.78;7.85;;;;;;;15.83;78.11;97215.97;4967667;28;20050;-61
2024/04/03 08:03:06;;;;;;;49.50;7.03;;;;;;;15.60;72.10;97220.31;4968362;28;20113;-62
2024/04/03 08:05:31;;;;;;;54.85;6.93;;;;;;;15.22;70.62;97218.16;4969225;28;20042;-60
2024/04/03 08:07:56;;;;;;;51.22;7.25;;;;;;;14.63;73.91;97226.16;4965934;28;20026;-62
2024/04/03 08:10:22;;;;;;;44.20;6.30;;;;;;;15.49;74.40;97215.47;4966694;28;20106;-59
2024/04/03 08:12:47;;;;;;;47.03;6.85;;;;;;;15.16;77.66;97220.97;4966812;28;20022;-61
2024/04/03 08:15:14;;;;;;;54.47;7.07;;;;;;;14.50;75.16;97217.81;4966491;28;20026;-62
2024/04/03 08:17:39;;;;;;;47.85;6.72;;;;;;;14.82;80.09;97218.56;4969115;28;20026;-59
2024/04/03 08:20:05;;;;;;;77.32;8.30;;;;;;;14.70;76.83;97214.56;4965189;28;20411;-61
2024/04/03 08:22:31;;;;;;;41.47;6.00;;;;;;;15.27;78.01;97218.84;4966258;28;20137;-61
2024/04/03 08:24:56;;;;;;;52.63;7.00;;;;;;;14.90;72.56;97204.38;4968287;28;20149;-59
2024/04/03 08:27:22;;;;;;;53.65;6.70;;;;;;;15.66;70.54;97214.00;4964924;28;20038;-61
2024/04/03 08:29:49;;;;;;;46.38;6.75;;;;;;;17.34;66.81;97214.47;4968145;28;20467;-60
2024/04/03 08:32:16;;;;;;;69.88;8.18;;;;;;;17.44;60.91;97211.38;4966180;28;20518;-63
2024/04/03 08:34:43;;;;;;;64.30;7.38;;;;;;;17.20;59.63;97210.66;4966463;28;20452;-61
2024/04/03 08:37:10;;;;;;;59.63;7.13;;;;;;;17.61;58.47;97208.91;4964621;28;20521;-61
2024/04/03 08:39:35;;;;;;;43.08;6.50;;;;;;;15.92;58.60;97210.38;4966015;28;20273;-61
2024/04/03 08:42:04;;;;;;;46.70;6.50;;;;;;;17.10;59.76;97211.94;4967355;28;20042;-63
2024/04/03 08:44:34;;;;;;;50.03;6.35;;;;;;;17.18;60.72;97207.22;4966363;28;20029;-60
2024/04/03 08:47:01;;;;;;;72.18;8.00;;;;;;;16.69;62.26;97210.97;4966178;28;20030;-62
2024/04/03 08:49:28;;;;;;;57.85;7.47;;;;;;;16.08;61.43;97213.34;4967408;28;20178;-59
2024/04/03 08:52:01;;;;;;;51.15;6.53;;;;;;;15.94;64.53;97210.34;4964890;28;20027;-60
2024/04/03 08:54:28;;;;;;;64.03;7.25;;;;;;;15.55;64.75;97211.75;4966366;28;20763;-60
2024/04/03 08:56:55;;;;;;;43.00;6.05;;;;;;;16.20;65.40;97206.75;4966648;28;20090;-62
2024/04/03 08:59:20;;;;;;;83.63;8.80;;;;;;;16.12;63.40;97211.44;4965514;28;20027;-60
2024/04/03 09:01:50;;;;;;;58.28;6.85;;;;;;;15.80;64.29;97214.34;4965211;28;20391;-59
2024/04/03 09:04:19;;;;;;;72.72;8.45;;;;;;;16.62;63.62;97209.50;4966124;28;20577;-60
2024/04/03 09:06:45;;;;;;;67.47;7.97;;;;;;;16.62;62.04;97204.25;4965647;28;20034;-58
2024/04/03 09:09:20;;;;;;;60.15;7.65;;;;;;;16.43;65.55;97212.88;4965040;28;20033;-61
2024/04/03 09:11:48;;;;;;;59.28;7.15;;;;;;;16.03;64.47;97217.88;4965999;28;20027;-59
2024/04/03 09:14:24;;;;;;;88.10;9.07;;;;;;;15.92;66.95;97217.41;4966559;28;20037;-60
2024/04/03 09:16:56;;;;;;;53.67;6.85;;;;;;;15.43;67.22;97224.38;4967266;28;20034;-58
2024/04/03 09:19:22;;;;;;;62.70;7.28;;;;;;;15.59;75.21;97223.84;4965233;28;20109;-62
2024/04/03 09:21:47;;;;;;;52.95;6.75;;;;;;;15.54;73.17;97236.25;4964563;28;20122;-59
2024/04/03 09:24:12;;;;;;;47.13;5.85;;;;;;;15.60;72.13;97236.88;4967405;28;20767;-59
2024/04/03 09:26:45;;;;;;;61.20;17.40;;;;;;;15.66;72.10;97235.81;4967017;28;20798;-60
2024/04/03 09:29:12;;;;;;;80.50;8.13;;;;;;;15.98;70.89;97240.81;4966672;28;20092;-60
2024/04/03 09:31:37;;;;;;;39.20;5.97;;;;;;;16.42;65.24;97237.41;4966358;28;20046;-61
2024/04/03 09:34:03;;;;;;;68.45;7.70;;;;;;;17.13;61.20;97232.84;4965793;28;20030;-60
2024/04/03 09:36:29;;;;;;;44.55;5.85;;;;;;;16.17;66.04;97238.34;4966052;28;20046;-60
2024/04/03 09:38:54;;;;;;;75.57;25.10;;;;;;;15.90;66.24;97238.44;4967530;28;20054;-60
2024/04/03 09:41:21;;;;;;;63.22;7.85;;;;;;;15.79;67.01;97245.84;4968805;28;20113;-58
2024/04/03 09:43:48;;;;;;;51.90;7.15;;;;;;;16.22;64.82;97246.88;4968910;28;20029;-63
2024/04/03 09:46:14;;;;;;;47.75;6.15;;;;;;;16.06;69.33;97245.75;4969833;28;20038;-60
2024/04/03 09:48:41;;;;;;;51.58;7.38;;;;;;;16.04;66.27;97242.34;4968368;28;20116;-60
2024/04/03 09:51:07;;;;;;;54.67;6.80;;;;;;;16.27;66.79;97239.69;4969505;28;20061;-60
2024/04/03 09:53:33;;;;;;;50.97;6.15;;;;;;;16.76;63.34;97241.31;4970966;28;20427;-60
2024/04/03 09:55:58;;;;;;;68.53;7.72;;;;;;;16.78;68.54;97246.50;4967413;28;20050;-62
2024/04/03 09:58:27;;;;;;;74.45;8.18;;;;;;;16.51;66.17;97244.91;4968186;28;20023;-61
2024/04/03 10:00:58;;;;;;;61.47;7.18;;;;;;;16.86;67.67;97246.19;4968913;28;20039;-61
2024/04/03 10:03:27;;;;;;;59.53;7.45;;;;;;;17.18;67.78;97239.63;4971807;28;20031;-60
2024/04/03 10:06:04;;;;;;;44.88;6.25;;;;;;;17.30;65.12;97242.66;4969324;28;20066;-62
2024/04/03 10:08:34;;;;;;;41.08;5.88;;;;;;;17.14;61.21;97242.44;4968203;28;20078;-62
2024/04/03 10:11:05;;;;;;;58.13;7.53;;;;;;;17.60;66.09;97244.00;4969896;28;20547;-62
2024/04/03 10:13:36;;;;;;;46.20;5.82;;;;;;;17.21;61.33;97245.66;4970411;28;20061;-63
2024/04/03 10:16:06;;;;;;;57.50;7.15;;;;;;;17.00;63.21;97248.25;4969254;28;20041;-62
2024/04/03 10:18:35;;;;;;;44.65;5.97;;;;;;;17.26;74.51;97247.16;4968637;28;20038;-60
2024/04/03 10:21:04;;;;;;;44.97;6.28;;;;;;;16.87;72.83;97253.13;4970123;28;20387;-61
2024/04/03 10:23:29;;;;;;;65.40;7.65;;;;;;;17.00;70.05;97249.09;4969305;28;20015;-61
2024/04/03 10:25:55;;;;;;;60.72;8.15;;;;;;;17.45;74.61;97238.53;4969756;28;20462;-62
2024/04/03 10:28:21;;;;;;;77.85;20.15;;;;;;;17.17;82.44;97244.94;4968843;28;20038;-60
2024/04/03 10:30:55;;;;;;;68.53;7.80;;;;;;;17.48;75.99;97238.34;4967339;28;20037;-62
2024/04/03 10:33:21;;;;;;;62.65;7.57;;;;;;;17.74;73.98;97240.78;4969399;28;20564;-61
2024/04/03 10:35:47;;;;;;;43.85;5.97;;;;;;;17.12;69.05;97245.16;4969192;28;20057;-61
2024/04/03 10:38:13;;;;;;;63.15;7.75;;;;;;;17.23;67.40;97235.94;4967702;28;20034;-59
2024/04/03 10:40:39;;;;;;;58.60;7.00;;;;;;;17.34;72.91;97236.34;4971165;28;20341;-61
2024/04/03 10:43:04;;;;;;;33.63;5.55;;;;;;;17.55;75.56;97234.56;4970953;28;20136;-60
2024/04/03 10:45:30;;;;;;;43.60;6.32;;;;;;;16.78;82.19;97241.25;4968680;28;20062;-61
2024/04/03 10:47:55;;;;;;;57.45;7.50;;;;;;;16.84;88.02;97240.13;4968511;28;20022;-61
2024/04/03 10:50:21;;;;;;;70.68;7.95;;;;;;;17.47;91.10;97233.16;4967773;28;20088;-59
2024/04/03 10:52:46;;;;;;;70.32;29.15;;;;;;;17.00;81.61;97232.50;4967024;28;20046;-60
2024/04/03 10:55:14;;;;;;;55.33;6.82;;;;;;;16.98;93.99;97234.31;4966358;28;20121;-61
2024/04/03 10:57:40;;;;;;;43.35;6.20;;;;;;;17.22;93.31;97248.22;4970459;28;20789;-61
2024/04/03 11:00:12;;;;;;;132.63;111.57;;;;;;;16.73;87.64;97251.94;4969707;28;20031;-61
2024/04/03 11:02:42;;;;;;;46.95;6.20;;;;;;;16.83;97.20;97241.06;4967799;28;20034;-61
2024/04/03 11:05:07;;;;;;;42.03;5.50;;;;;;;17.05;90.69;97247.16;4969682;28;20040;-62
2024/04/03 11:07:32;;;;;;;65.30;7.43;;;;;;;16.92;97.83;97238.03;4967659;28;20145;-59
2024/04/03 11:09:58;;;;;;;49.13;7.60;;;;;;;17.50;92.50;97235.66;4968628;28;20109;-59
2024/04/03 11:12:23;;;;;;;67.10;8.15;;;;;;;17.51;94.99;97230.34;4967334;28;20065;-61
2024/04/03 11:14:55;;;;;;;90.40;66.40;;;;;;;16.98;90.92;97227.28;4968225;28;20029;-61
2024/04/03 11:17:21;;;;;;;65.35;8.23;;;;;;;17.69;93.22;97230.47;4968290;28;20521;-61
2024/04/03 11:19:46;;;;;;;43.72;6.00;;;;;;;18.34;95.21;97235.41;4969097;28;20022;-62
2024/04/03 11:22:11;;;;;;;40.75;5.72;;;;;;;18.46;87.27;97215.59;4967470;28;20049;-61